sensor_id;sensor_type;location;lat;lon;timestamp;P1;durP1;ratioP1;P2;durP2;ratioP2
67191;SDS011;54120;53.504;49.426;2023-04-07T00:01:57;9.43;;;3.15;;
67191;SDS011;54120;53.504;49.426;2023-04-07T00:04:23;11.38;;;3.85;;
67191;SDS011;54120;53.504;49.426;2023-04-07T00:06:49;10.85;;;4.55;;
67191;SDS011;54120;53.504;49.426;2023-04-07T00:09:15;10.40;;;5.10;;
67191;SDS011;54120;53.504;49.426;2023-04-07T00:11:41;10.13;;;5.53;;
67191;SDS011;54120;53.504;49.426;2023-04-07T00:14:07;11.20;;;4.80;;
67191;SDS011;54120;53.504;49.426;2023-04-07T00:16:33;11.05;;;4.93;;
67191;SDS011;54120;53.504;49.426;2023-04-07T00:18:59;14.95;;;6.10;;
67191;SDS011;54120;53.504;49.426;2023-04-07T00:21:26;15.63;;;5.90;;
67191;SDS011;54120;53.504;49.426;2023-04-07T00:23:52;17.80;;;5.90;;
67191;SDS011;54120;53.504;49.426;2023-04-07T00:26:18;13.30;;;6.03;;
67191;SDS011;54120;53.504;49.426;2023-04-07T00:28:44;9.95;;;4.35;;
67191;SDS011;54120;53.504;49.426;2023-04-07T00:31:10;18.48;;;5.75;;
67191;SDS011;54120;53.504;49.426;2023-04-07T00:33:36;15.23;;;5.30;;
67191;SDS011;54120;53.504;49.426;2023-04-07T00:36:02;13.00;;;4.70;;
67191;SDS011;54120;53.504;49.426;2023-04-07T00:38:28;13.20;;;4.80;;
67191;SDS011;54120;53.504;49.426;2023-04-07T00:40:57;13.18;;;4.68;;
67191;SDS011;54120;53.504;49.426;2023-04-07T00:48:57;15.50;;;5.88;;
67191;SDS011;54120;53.504;49.426;2023-04-07T00:51:23;16.80;;;5.18;;
67191;SDS011;54120;53.504;49.426;2023-04-07T00:53:49;15.40;;;5.60;;
67191;SDS011;54120;53.504;49.426;2023-04-07T00:56:15;15.85;;;5.10;;
67191;SDS011;54120;53.504;49.426;2023-04-07T00:58:41;11.50;;;4.32;;
67191;SDS011;54120;53.504;49.426;2023-04-07T01:04:04;14.63;;;4.55;;
67191;SDS011;54120;53.504;49.426;2023-04-07T01:06:35;10.82;;;4.20;;
67191;SDS011;54120;53.504;49.426;2023-04-07T01:09:29;13.82;;;5.32;;
67191;SDS011;54120;53.504;49.426;2023-04-07T01:12:04;10.05;;;3.05;;
67191;SDS011;54120;53.504;49.426;2023-04-07T01:17:07;9.80;;;3.58;;
67191;SDS011;54120;53.504;49.426;2023-04-07T01:19:39;8.63;;;2.90;;
67191;SDS011;54120;53.504;49.426;2023-04-07T01:22:14;6.30;;;2.78;;
67191;SDS011;54120;53.504;49.426;2023-04-07T01:27:41;8.82;;;3.28;;
67191;SDS011;54120;53.504;49.426;2023-04-07T01:30:20;11.52;;;3.75;;
67191;SDS011;54120;53.504;49.426;2023-04-07T01:32:49;9.23;;;3.78;;
67191;SDS011;54120;53.504;49.426;2023-04-07T01:35:17;11.32;;;3.63;;
67191;SDS011;54120;53.504;49.426;2023-04-07T01:37:45;11.55;;;4.03;;
67191;SDS011;54120;53.504;49.426;2023-04-07T01:40:13;7.22;;;3.85;;
67191;SDS011;54120;53.504;49.426;2023-04-07T01:42:40;12.30;;;4.05;;
67191;SDS011;54120;53.504;49.426;2023-04-07T01:45:07;14.40;;;4.60;;
67191;SDS011;54120;53.504;49.426;2023-04-07T01:47:34;11.73;;;4.38;;
67191;SDS011;54120;53.504;49.426;2023-04-07T01:50:02;11.82;;;4.78;;
67191;SDS011;54120;53.504;49.426;2023-04-07T01:52:30;22.48;;;5.40;;
67191;SDS011;54120;53.504;49.426;2023-04-07T01:54:59;11.93;;;4.70;;
67191;SDS011;54120;53.504;49.426;2023-04-07T01:57:25;13.57;;;4.80;;
67191;SDS011;54120;53.504;49.426;2023-04-07T01:59:52;11.13;;;4.47;;
67191;SDS011;54120;53.504;49.426;2023-04-07T02:02:18;12.20;;;4.57;;
67191;SDS011;54120;53.504;49.426;2023-04-07T02:04:54;9.35;;;3.78;;
67191;SDS011;54120;53.504;49.426;2023-04-07T02:07:24;8.23;;;3.22;;
67191;SDS011;54120;53.504;49.426;2023-04-07T02:09:56;8.52;;;2.97;;
67191;SDS011;54120;53.504;49.426;2023-04-07T02:12:25;6.47;;;3.40;;
67191;SDS011;54120;53.504;49.426;2023-04-07T02:14:54;11.52;;;4.72;;
67191;SDS011;54120;53.504;49.426;2023-04-07T02:17:22;11.35;;;4.50;;
67191;SDS011;54120;53.504;49.426;2023-04-07T02:19:50;15.18;;;5.55;;
67191;SDS011;54120;53.504;49.426;2023-04-07T02:22:18;16.85;;;5.32;;
67191;SDS011;54120;53.504;49.426;2023-04-07T02:24:44;20.48;;;6.93;;
67191;SDS011;54120;53.504;49.426;2023-04-07T02:27:10;17.02;;;5.70;;
67191;SDS011;54120;53.504;49.426;2023-04-07T02:29:36;12.63;;;5.90;;
67191;SDS011;54120;53.504;49.426;2023-04-07T02:32:02;16.38;;;6.47;;
67191;SDS011;54120;53.504;49.426;2023-04-07T02:34:30;15.30;;;6.55;;
67191;SDS011;54120;53.504;49.426;2023-04-07T02:36:56;13.85;;;6.90;;
67191;SDS011;54120;53.504;49.426;2023-04-07T02:39:22;16.48;;;6.63;;
67191;SDS011;54120;53.504;49.426;2023-04-07T02:41:49;18.42;;;7.57;;
67191;SDS011;54120;53.504;49.426;2023-04-07T02:44:15;20.08;;;7.75;;
67191;SDS011;54120;53.504;49.426;2023-04-07T02:46:42;18.77;;;8.98;;
67191;SDS011;54120;53.504;49.426;2023-04-07T02:49:08;21.23;;;8.10;;
67191;SDS011;54120;53.504;49.426;2023-04-07T02:51:34;17.08;;;7.85;;
67191;SDS011;54120;53.504;49.426;2023-04-07T02:54:00;14.38;;;6.45;;
67191;SDS011;54120;53.504;49.426;2023-04-07T02:56:27;12.05;;;5.15;;
67191;SDS011;54120;53.504;49.426;2023-04-07T02:58:53;14.30;;;4.85;;
67191;SDS011;54120;53.504;49.426;2023-04-07T03:01:19;16.80;;;6.43;;
67191;SDS011;54120;53.504;49.426;2023-04-07T03:03:45;12.02;;;5.57;;
67191;SDS011;54120;53.504;49.426;2023-04-07T03:06:12;12.10;;;4.88;;
67191;SDS011;54120;53.504;49.426;2023-04-07T03:08:38;7.22;;;3.08;;
67191;SDS011;54120;53.504;49.426;2023-04-07T03:11:04;10.32;;;2.85;;
67191;SDS011;54120;53.504;49.426;2023-04-07T03:13:30;8.73;;;3.00;;
67191;SDS011;54120;53.504;49.426;2023-04-07T03:15:56;7.68;;;3.17;;
67191;SDS011;54120;53.504;49.426;2023-04-07T03:18:23;8.38;;;2.80;;
67191;SDS011;54120;53.504;49.426;2023-04-07T03:20:49;10.05;;;2.55;;
67191;SDS011;54120;53.504;49.426;2023-04-07T03:23:17;11.43;;;2.95;;
67191;SDS011;54120;53.504;49.426;2023-04-07T03:25:43;11.65;;;2.78;;
67191;SDS011;54120;53.504;49.426;2023-04-07T03:28:09;7.05;;;2.28;;
67191;SDS011;54120;53.504;49.426;2023-04-07T03:30:35;5.68;;;2.00;;
67191;SDS011;54120;53.504;49.426;2023-04-07T03:33:01;6.63;;;1.92;;
67191;SDS011;54120;53.504;49.426;2023-04-07T03:35:28;11.52;;;3.13;;
67191;SDS011;54120;53.504;49.426;2023-04-07T03:37:54;6.05;;;1.95;;
67191;SDS011;54120;53.504;49.426;2023-04-07T03:40:23;10.27;;;2.20;;
67191;SDS011;54120;53.504;49.426;2023-04-07T03:42:49;7.85;;;2.15;;
67191;SDS011;54120;53.504;49.426;2023-04-07T03:45:15;4.40;;;1.80;;
67191;SDS011;54120;53.504;49.426;2023-04-07T03:47:42;7.03;;;1.75;;
67191;SDS011;54120;53.504;49.426;2023-04-07T03:50:08;5.88;;;2.20;;
67191;SDS011;54120;53.504;49.426;2023-04-07T03:52:34;9.88;;;1.90;;
67191;SDS011;54120;53.504;49.426;2023-04-07T03:55:01;5.47;;;1.70;;
67191;SDS011;54120;53.504;49.426;2023-04-07T03:57:27;12.27;;;1.85;;
67191;SDS011;54120;53.504;49.426;2023-04-07T03:59:53;10.23;;;1.80;;
67191;SDS011;54120;53.504;49.426;2023-04-07T04:02:20;4.47;;;1.60;;
67191;SDS011;54120;53.504;49.426;2023-04-07T04:04:46;8.43;;;1.60;;
67191;SDS011;54120;53.504;49.426;2023-04-07T04:07:12;7.15;;;1.98;;
67191;SDS011;54120;53.504;49.426;2023-04-07T04:09:38;7.80;;;2.05;;
67191;SDS011;54120;53.504;49.426;2023-04-07T04:12:04;10.15;;;2.03;;
67191;SDS011;54120;53.504;49.426;2023-04-07T04:14:31;5.93;;;2.05;;
67191;SDS011;54120;53.504;49.426;2023-04-07T04:16:57;3.38;;;1.73;;
67191;SDS011;54120;53.504;49.426;2023-04-07T04:19:23;8.80;;;2.13;;
67191;SDS011;54120;53.504;49.426;2023-04-07T04:21:49;8.23;;;1.90;;
67191;SDS011;54120;53.504;49.426;2023-04-07T04:24:15;11.52;;;2.78;;
67191;SDS011;54120;53.504;49.426;2023-04-07T04:26:41;10.40;;;2.30;;
67191;SDS011;54120;53.504;49.426;2023-04-07T04:29:07;9.07;;;2.10;;
67191;SDS011;54120;53.504;49.426;2023-04-07T04:31:33;4.03;;;1.80;;
67191;SDS011;54120;53.504;49.426;2023-04-07T04:33:59;6.30;;;1.88;;
67191;SDS011;54120;53.504;49.426;2023-04-07T04:36:26;5.50;;;1.85;;
67191;SDS011;54120;53.504;49.426;2023-04-07T04:38:52;4.68;;;2.20;;
67191;SDS011;54120;53.504;49.426;2023-04-07T04:41:18;10.15;;;2.35;;
67191;SDS011;54120;53.504;49.426;2023-04-07T04:43:46;7.93;;;2.63;;
67191;SDS011;54120;53.504;49.426;2023-04-07T04:46:12;7.95;;;3.10;;
67191;SDS011;54120;53.504;49.426;2023-04-07T04:48:38;12.25;;;2.60;;
67191;SDS011;54120;53.504;49.426;2023-04-07T04:51:04;12.13;;;2.88;;
67191;SDS011;54120;53.504;49.426;2023-04-07T04:53:30;5.00;;;2.10;;
67191;SDS011;54120;53.504;49.426;2023-04-07T04:55:57;5.80;;;2.17;;
67191;SDS011;54120;53.504;49.426;2023-04-07T04:58:23;8.52;;;2.72;;
67191;SDS011;54120;53.504;49.426;2023-04-07T05:00:49;9.75;;;2.95;;
67191;SDS011;54120;53.504;49.426;2023-04-07T05:03:22;10.00;;;2.00;;
67191;SDS011;54120;53.504;49.426;2023-04-07T05:05:50;6.57;;;2.75;;
67191;SDS011;54120;53.504;49.426;2023-04-07T05:08:16;8.95;;;3.22;;
67191;SDS011;54120;53.504;49.426;2023-04-07T05:10:42;6.40;;;2.78;;
67191;SDS011;54120;53.504;49.426;2023-04-07T05:13:08;12.70;;;3.17;;
67191;SDS011;54120;53.504;49.426;2023-04-07T05:15:34;10.20;;;3.58;;
67191;SDS011;54120;53.504;49.426;2023-04-07T05:18:01;10.25;;;4.05;;
67191;SDS011;54120;53.504;49.426;2023-04-07T05:20:27;14.63;;;3.33;;
67191;SDS011;54120;53.504;49.426;2023-04-07T05:22:53;6.88;;;2.95;;
67191;SDS011;54120;53.504;49.426;2023-04-07T05:25:19;12.18;;;4.65;;
67191;SDS011;54120;53.504;49.426;2023-04-07T05:27:45;13.38;;;5.90;;
67191;SDS011;54120;53.504;49.426;2023-04-07T05:30:11;19.13;;;6.90;;
67191;SDS011;54120;53.504;49.426;2023-04-07T05:32:37;14.27;;;7.03;;
67191;SDS011;54120;53.504;49.426;2023-04-07T05:35:03;19.45;;;7.22;;
67191;SDS011;54120;53.504;49.426;2023-04-07T05:37:30;18.13;;;9.13;;
67191;SDS011;54120;53.504;49.426;2023-04-07T05:39:55;18.42;;;9.10;;
67191;SDS011;54120;53.504;49.426;2023-04-07T05:42:21;15.25;;;8.57;;
67191;SDS011;54120;53.504;49.426;2023-04-07T05:44:47;53.38;;;10.65;;
67191;SDS011;54120;53.504;49.426;2023-04-07T05:47:13;11.95;;;5.90;;
67191;SDS011;54120;53.504;49.426;2023-04-07T05:49:39;17.13;;;6.68;;
67191;SDS011;54120;53.504;49.426;2023-04-07T05:52:11;14.27;;;5.38;;
67191;SDS011;54120;53.504;49.426;2023-04-07T05:54:37;9.60;;;4.45;;
67191;SDS011;54120;53.504;49.426;2023-04-07T05:57:05;13.70;;;5.63;;
67191;SDS011;54120;53.504;49.426;2023-04-07T05:59:35;16.80;;;7.03;;
67191;SDS011;54120;53.504;49.426;2023-04-07T06:02:02;12.93;;;5.63;;
67191;SDS011;54120;53.504;49.426;2023-04-07T06:04:28;9.82;;;4.82;;
67191;SDS011;54120;53.504;49.426;2023-04-07T06:06:54;18.15;;;7.90;;
67191;SDS011;54120;53.504;49.426;2023-04-07T06:09:21;16.00;;;6.57;;
67191;SDS011;54120;53.504;49.426;2023-04-07T06:11:47;7.32;;;5.00;;
67191;SDS011;54120;53.504;49.426;2023-04-07T06:14:13;14.02;;;4.70;;
67191;SDS011;54120;53.504;49.426;2023-04-07T06:16:39;7.50;;;3.60;;
67191;SDS011;54120;53.504;49.426;2023-04-07T06:19:05;12.27;;;7.25;;
67191;SDS011;54120;53.504;49.426;2023-04-07T06:21:32;10.75;;;6.15;;
67191;SDS011;54120;53.504;49.426;2023-04-07T06:23:59;17.58;;;6.93;;
67191;SDS011;54120;53.504;49.426;2023-04-07T06:26:25;13.30;;;5.63;;
67191;SDS011;54120;53.504;49.426;2023-04-07T06:28:52;10.63;;;6.57;;
67191;SDS011;54120;53.504;49.426;2023-04-07T06:31:18;22.30;;;11.25;;
67191;SDS011;54120;53.504;49.426;2023-04-07T06:33:45;19.80;;;10.85;;
67191;SDS011;54120;53.504;49.426;2023-04-07T06:36:11;18.70;;;9.52;;
67191;SDS011;54120;53.504;49.426;2023-04-07T06:38:37;10.13;;;6.30;;
67191;SDS011;54120;53.504;49.426;2023-04-07T06:41:03;16.88;;;6.78;;
67191;SDS011;54120;53.504;49.426;2023-04-07T06:43:29;14.10;;;6.70;;
67191;SDS011;54120;53.504;49.426;2023-04-07T06:45:56;13.18;;;6.63;;
67191;SDS011;54120;53.504;49.426;2023-04-07T06:48:22;8.43;;;4.07;;
67191;SDS011;54120;53.504;49.426;2023-04-07T06:50:48;10.63;;;4.05;;
67191;SDS011;54120;53.504;49.426;2023-04-07T06:53:15;15.55;;;5.97;;
67191;SDS011;54120;53.504;49.426;2023-04-07T06:55:41;12.20;;;6.10;;
67191;SDS011;54120;53.504;49.426;2023-04-07T06:58:07;16.70;;;7.40;;
67191;SDS011;54120;53.504;49.426;2023-04-07T07:00:34;15.70;;;4.70;;
67191;SDS011;54120;53.504;49.426;2023-04-07T07:03:01;13.88;;;3.67;;
67191;SDS011;54120;53.504;49.426;2023-04-07T07:05:27;13.70;;;4.00;;
67191;SDS011;54120;53.504;49.426;2023-04-07T07:07:53;7.63;;;3.42;;
67191;SDS011;54120;53.504;49.426;2023-04-07T07:10:19;10.00;;;4.28;;
67191;SDS011;54120;53.504;49.426;2023-04-07T07:12:50;5.07;;;2.75;;
67191;SDS011;54120;53.504;49.426;2023-04-07T07:15:16;14.07;;;4.90;;
67191;SDS011;54120;53.504;49.426;2023-04-07T07:17:43;14.48;;;7.53;;
67191;SDS011;54120;53.504;49.426;2023-04-07T07:20:09;12.75;;;5.88;;
67191;SDS011;54120;53.504;49.426;2023-04-07T07:22:35;22.98;;;6.00;;
67191;SDS011;54120;53.504;49.426;2023-04-07T07:25:01;14.38;;;5.70;;
67191;SDS011;54120;53.504;49.426;2023-04-07T07:27:27;12.60;;;5.18;;
67191;SDS011;54120;53.504;49.426;2023-04-07T07:29:53;16.45;;;6.25;;
67191;SDS011;54120;53.504;49.426;2023-04-07T07:32:20;24.35;;;8.68;;
67191;SDS011;54120;53.504;49.426;2023-04-07T07:34:46;6.93;;;4.82;;
67191;SDS011;54120;53.504;49.426;2023-04-07T07:37:12;17.42;;;6.68;;
67191;SDS011;54120;53.504;49.426;2023-04-07T07:39:38;7.38;;;3.50;;
67191;SDS011;54120;53.504;49.426;2023-04-07T07:42:04;15.55;;;5.45;;
67191;SDS011;54120;53.504;49.426;2023-04-07T07:44:30;13.20;;;5.85;;
67191;SDS011;54120;53.504;49.426;2023-04-07T07:46:56;17.90;;;4.93;;
67191;SDS011;54120;53.504;49.426;2023-04-07T07:49:22;11.43;;;4.43;;
67191;SDS011;54120;53.504;49.426;2023-04-07T07:51:48;8.10;;;3.38;;
67191;SDS011;54120;53.504;49.426;2023-04-07T07:54:14;35.45;;;6.88;;
67191;SDS011;54120;53.504;49.426;2023-04-07T07:56:41;15.60;;;6.35;;
67191;SDS011;54120;53.504;49.426;2023-04-07T07:59:07;19.30;;;6.55;;
67191;SDS011;54120;53.504;49.426;2023-04-07T08:01:33;6.63;;;4.72;;
67191;SDS011;54120;53.504;49.426;2023-04-07T08:03:59;9.45;;;3.80;;
67191;SDS011;54120;53.504;49.426;2023-04-07T08:06:26;6.82;;;2.83;;
67191;SDS011;54120;53.504;49.426;2023-04-07T08:08:53;5.13;;;2.88;;
67191;SDS011;54120;53.504;49.426;2023-04-07T08:11:19;8.70;;;2.63;;
67191;SDS011;54120;53.504;49.426;2023-04-07T08:13:45;9.10;;;3.40;;
67191;SDS011;54120;53.504;49.426;2023-04-07T08:16:11;9.95;;;2.63;;
67191;SDS011;54120;53.504;49.426;2023-04-07T08:18:37;7.50;;;3.10;;
67191;SDS011;54120;53.504;49.426;2023-04-07T08:21:04;8.43;;;2.88;;
67191;SDS011;54120;53.504;49.426;2023-04-07T08:23:30;10.15;;;3.28;;
67191;SDS011;54120;53.504;49.426;2023-04-07T08:25:56;4.43;;;2.00;;
67191;SDS011;54120;53.504;49.426;2023-04-07T08:28:23;8.65;;;2.97;;
67191;SDS011;54120;53.504;49.426;2023-04-07T08:30:50;5.55;;;2.80;;
67191;SDS011;54120;53.504;49.426;2023-04-07T08:33:16;8.57;;;3.55;;
67191;SDS011;54120;53.504;49.426;2023-04-07T08:35:42;8.13;;;3.70;;
67191;SDS011;54120;53.504;49.426;2023-04-07T08:38:08;9.10;;;2.90;;
67191;SDS011;54120;53.504;49.426;2023-04-07T08:40:34;5.15;;;3.40;;
67191;SDS011;54120;53.504;49.426;2023-04-07T08:43:02;9.60;;;2.95;;
67191;SDS011;54120;53.504;49.426;2023-04-07T08:48:04;8.90;;;2.97;;
67191;SDS011;54120;53.504;49.426;2023-04-07T08:50:43;4.15;;;3.30;;
67191;SDS011;54120;53.504;49.426;2023-04-07T08:53:11;6.40;;;3.35;;
67191;SDS011;54120;53.504;49.426;2023-04-07T08:55:41;5.90;;;2.85;;
67191;SDS011;54120;53.504;49.426;2023-04-07T08:58:10;14.57;;;3.53;;
67191;SDS011;54120;53.504;49.426;2023-04-07T09:00:42;10.15;;;3.60;;
67191;SDS011;54120;53.504;49.426;2023-04-07T09:03:10;6.05;;;3.63;;
67191;SDS011;54120;53.504;49.426;2023-04-07T09:05:37;6.15;;;2.78;;
67191;SDS011;54120;53.504;49.426;2023-04-07T09:08:04;7.07;;;3.30;;
67191;SDS011;54120;53.504;49.426;2023-04-07T09:10:31;12.85;;;3.58;;
67191;SDS011;54120;53.504;49.426;2023-04-07T09:12:57;8.50;;;3.38;;
67191;SDS011;54120;53.504;49.426;2023-04-07T09:15:24;10.27;;;3.88;;
67191;SDS011;54120;53.504;49.426;2023-04-07T09:17:55;3.78;;;2.55;;
67191;SDS011;54120;53.504;49.426;2023-04-07T09:20:24;4.75;;;2.67;;
67191;SDS011;54120;53.504;49.426;2023-04-07T09:22:50;4.50;;;3.40;;
67191;SDS011;54120;53.504;49.426;2023-04-07T09:27:55;5.68;;;3.42;;
67191;SDS011;54120;53.504;49.426;2023-04-07T09:30:26;14.55;;;3.40;;
67191;SDS011;54120;53.504;49.426;2023-04-07T09:32:53;4.55;;;3.28;;
67191;SDS011;54120;53.504;49.426;2023-04-07T09:35:20;7.72;;;3.38;;
67191;SDS011;54120;53.504;49.426;2023-04-07T09:38:04;10.98;;;3.72;;
67191;SDS011;54120;53.504;49.426;2023-04-07T09:40:30;9.15;;;2.90;;
67191;SDS011;54120;53.504;49.426;2023-04-07T09:42:57;5.72;;;2.72;;
67191;SDS011;54120;53.504;49.426;2023-04-07T09:45:24;9.65;;;4.00;;
67191;SDS011;54120;53.504;49.426;2023-04-07T09:47:51;7.00;;;3.63;;
67191;SDS011;54120;53.504;49.426;2023-04-07T09:50:33;5.45;;;3.17;;
67191;SDS011;54120;53.504;49.426;2023-04-07T09:53:16;6.18;;;3.63;;
67191;SDS011;54120;53.504;49.426;2023-04-07T09:55:48;7.32;;;2.72;;
67191;SDS011;54120;53.504;49.426;2023-04-07T09:58:15;5.15;;;2.80;;
67191;SDS011;54120;53.504;49.426;2023-04-07T10:00:41;9.98;;;2.78;;
67191;SDS011;54120;53.504;49.426;2023-04-07T10:03:08;7.72;;;2.90;;
67191;SDS011;54120;53.504;49.426;2023-04-07T10:05:34;3.90;;;2.90;;
67191;SDS011;54120;53.504;49.426;2023-04-07T10:08:04;6.95;;;3.10;;
67191;SDS011;54120;53.504;49.426;2023-04-07T10:10:31;5.68;;;3.30;;
67191;SDS011;54120;53.504;49.426;2023-04-07T10:12:57;5.03;;;3.40;;
67191;SDS011;54120;53.504;49.426;2023-04-07T10:15:24;10.55;;;3.65;;
67191;SDS011;54120;53.504;49.426;2023-04-07T10:17:50;3.42;;;2.60;;
67191;SDS011;54120;53.504;49.426;2023-04-07T10:20:18;9.93;;;2.83;;
67191;SDS011;54120;53.504;49.426;2023-04-07T10:22:48;9.35;;;3.03;;
67191;SDS011;54120;53.504;49.426;2023-04-07T10:25:17;7.50;;;3.33;;
67191;SDS011;54120;53.504;49.426;2023-04-07T10:27:48;9.48;;;3.50;;
67191;SDS011;54120;53.504;49.426;2023-04-07T10:30:38;5.63;;;3.05;;
67191;SDS011;54120;53.504;49.426;2023-04-07T10:33:04;6.90;;;3.25;;
67191;SDS011;54120;53.504;49.426;2023-04-07T10:38:27;5.80;;;3.45;;
67191;SDS011;54120;53.504;49.426;2023-04-07T10:40:53;5.13;;;3.15;;
67191;SDS011;54120;53.504;49.426;2023-04-07T10:43:41;10.02;;;3.80;;
67191;SDS011;54120;53.504;49.426;2023-04-07T10:46:06;7.30;;;4.65;;
67191;SDS011;54120;53.504;49.426;2023-04-07T10:48:32;7.13;;;2.97;;
67191;SDS011;54120;53.504;49.426;2023-04-07T10:53:31;5.60;;;3.33;;
67191;SDS011;54120;53.504;49.426;2023-04-07T10:55:58;6.38;;;3.53;;
67191;SDS011;54120;53.504;49.426;2023-04-07T10:58:26;7.45;;;3.67;;
67191;SDS011;54120;53.504;49.426;2023-04-07T11:06:02;6.20;;;2.22;;
67191;SDS011;54120;53.504;49.426;2023-04-07T11:10:58;4.47;;;3.60;;
67191;SDS011;54120;53.504;49.426;2023-04-07T11:13:25;7.20;;;2.80;;
67191;SDS011;54120;53.504;49.426;2023-04-07T11:15:52;4.03;;;3.03;;
67191;SDS011;54120;53.504;49.426;2023-04-07T11:18:19;4.68;;;3.70;;
67191;SDS011;54120;53.504;49.426;2023-04-07T11:23:18;4.35;;;3.67;;
67191;SDS011;54120;53.504;49.426;2023-04-07T11:25:46;5.47;;;3.35;;
67191;SDS011;54120;53.504;49.426;2023-04-07T11:28:14;8.60;;;4.15;;
67191;SDS011;54120;53.504;49.426;2023-04-07T11:30:45;5.15;;;3.33;;
67191;SDS011;54120;53.504;49.426;2023-04-07T11:33:13;8.43;;;4.25;;
67191;SDS011;54120;53.504;49.426;2023-04-07T11:38:36;5.53;;;3.33;;
67191;SDS011;54120;53.504;49.426;2023-04-07T11:41:13;4.65;;;3.38;;
67191;SDS011;54120;53.504;49.426;2023-04-07T11:43:40;5.07;;;3.70;;
67191;SDS011;54120;53.504;49.426;2023-04-07T11:46:10;6.55;;;3.95;;
67191;SDS011;54120;53.504;49.426;2023-04-07T11:48:41;7.25;;;3.75;;
67191;SDS011;54120;53.504;49.426;2023-04-07T11:51:15;8.15;;;3.58;;
67191;SDS011;54120;53.504;49.426;2023-04-07T11:53:43;6.55;;;3.72;;
67191;SDS011;54120;53.504;49.426;2023-04-07T11:56:12;8.13;;;3.70;;
67191;SDS011;54120;53.504;49.426;2023-04-07T11:58:48;4.07;;;3.67;;
67191;SDS011;54120;53.504;49.426;2023-04-07T12:01:18;5.13;;;3.63;;
67191;SDS011;54120;53.504;49.426;2023-04-07T12:03:59;6.45;;;3.90;;
67191;SDS011;54120;53.504;49.426;2023-04-07T12:06:27;10.32;;;4.00;;
67191;SDS011;54120;53.504;49.426;2023-04-07T12:09:02;10.05;;;3.63;;
67191;SDS011;54120;53.504;49.426;2023-04-07T12:11:30;10.98;;;4.65;;
67191;SDS011;54120;53.504;49.426;2023-04-07T12:13:57;10.07;;;3.70;;
67191;SDS011;54120;53.504;49.426;2023-04-07T12:16:24;5.70;;;3.70;;
67191;SDS011;54120;53.504;49.426;2023-04-07T12:18:50;8.40;;;3.45;;
67191;SDS011;54120;53.504;49.426;2023-04-07T12:21:17;3.55;;;2.80;;
67191;SDS011;54120;53.504;49.426;2023-04-07T12:23:44;7.38;;;3.67;;
67191;SDS011;54120;53.504;49.426;2023-04-07T12:26:11;4.75;;;3.85;;
67191;SDS011;54120;53.504;49.426;2023-04-07T12:28:38;5.15;;;3.17;;
67191;SDS011;54120;53.504;49.426;2023-04-07T12:31:04;14.23;;;4.15;;
67191;SDS011;54120;53.504;49.426;2023-04-07T12:33:30;4.82;;;3.90;;
67191;SDS011;54120;53.504;49.426;2023-04-07T12:35:56;7.63;;;3.67;;
67191;SDS011;54120;53.504;49.426;2023-04-07T12:38:23;4.53;;;3.70;;
67191;SDS011;54120;53.504;49.426;2023-04-07T12:40:49;5.53;;;3.15;;
67191;SDS011;54120;53.504;49.426;2023-04-07T12:43:16;5.45;;;3.28;;
67191;SDS011;54120;53.504;49.426;2023-04-07T12:45:42;9.65;;;3.80;;
67191;SDS011;54120;53.504;49.426;2023-04-07T12:48:08;9.35;;;3.60;;
67191;SDS011;54120;53.504;49.426;2023-04-07T12:50:35;11.65;;;3.42;;
67191;SDS011;54120;53.504;49.426;2023-04-07T12:53:02;8.35;;;3.78;;
67191;SDS011;54120;53.504;49.426;2023-04-07T12:55:30;8.20;;;4.07;;
67191;SDS011;54120;53.504;49.426;2023-04-07T12:57:58;6.20;;;3.95;;
67191;SDS011;54120;53.504;49.426;2023-04-07T13:00:25;8.27;;;4.40;;
67191;SDS011;54120;53.504;49.426;2023-04-07T13:02:51;8.63;;;3.97;;
67191;SDS011;54120;53.504;49.426;2023-04-07T13:05:17;5.60;;;3.85;;
67191;SDS011;54120;53.504;49.426;2023-04-07T13:07:44;5.80;;;3.90;;
67191;SDS011;54120;53.504;49.426;2023-04-07T13:10:10;12.15;;;4.28;;
67191;SDS011;54120;53.504;49.426;2023-04-07T13:12:36;10.35;;;4.13;;
67191;SDS011;54120;53.504;49.426;2023-04-07T13:15:04;5.35;;;3.58;;
67191;SDS011;54120;53.504;49.426;2023-04-07T13:17:31;8.20;;;3.85;;
67191;SDS011;54120;53.504;49.426;2023-04-07T13:19:57;6.38;;;3.50;;
67191;SDS011;54120;53.504;49.426;2023-04-07T13:22:23;5.93;;;3.83;;
67191;SDS011;54120;53.504;49.426;2023-04-07T13:24:50;9.02;;;3.75;;
67191;SDS011;54120;53.504;49.426;2023-04-07T13:27:16;8.55;;;3.70;;
67191;SDS011;54120;53.504;49.426;2023-04-07T13:29:42;5.70;;;3.90;;
67191;SDS011;54120;53.504;49.426;2023-04-07T13:32:08;5.80;;;3.42;;
67191;SDS011;54120;53.504;49.426;2023-04-07T13:34:37;5.57;;;3.72;;
67191;SDS011;54120;53.504;49.426;2023-04-07T13:37:04;11.13;;;4.13;;
67191;SDS011;54120;53.504;49.426;2023-04-07T13:39:31;5.20;;;4.00;;
67191;SDS011;54120;53.504;49.426;2023-04-07T13:41:57;9.10;;;3.83;;
67191;SDS011;54120;53.504;49.426;2023-04-07T13:44:26;6.38;;;3.30;;
67191;SDS011;54120;53.504;49.426;2023-04-07T13:46:53;7.18;;;3.45;;
67191;SDS011;54120;53.504;49.426;2023-04-07T13:49:20;6.07;;;3.40;;
67191;SDS011;54120;53.504;49.426;2023-04-07T13:51:47;7.75;;;3.45;;
67191;SDS011;54120;53.504;49.426;2023-04-07T13:54:15;7.05;;;3.10;;
67191;SDS011;54120;53.504;49.426;2023-04-07T13:56:43;9.15;;;3.47;;
67191;SDS011;54120;53.504;49.426;2023-04-07T13:59:09;3.08;;;2.58;;
67191;SDS011;54120;53.504;49.426;2023-04-07T14:01:35;4.95;;;2.92;;
67191;SDS011;54120;53.504;49.426;2023-04-07T14:04:03;5.22;;;3.25;;
67191;SDS011;54120;53.504;49.426;2023-04-07T14:06:30;5.53;;;2.90;;
67191;SDS011;54120;53.504;49.426;2023-04-07T14:08:58;10.63;;;3.17;;
67191;SDS011;54120;53.504;49.426;2023-04-07T14:11:25;9.73;;;3.33;;
67191;SDS011;54120;53.504;49.426;2023-04-07T14:13:51;10.05;;;3.00;;
67191;SDS011;54120;53.504;49.426;2023-04-07T14:16:20;2.35;;;1.80;;
67191;SDS011;54120;53.504;49.426;2023-04-07T14:18:47;9.50;;;3.05;;
67191;SDS011;54120;53.504;49.426;2023-04-07T14:21:13;8.75;;;4.05;;
67191;SDS011;54120;53.504;49.426;2023-04-07T14:23:40;5.85;;;3.45;;
67191;SDS011;54120;53.504;49.426;2023-04-07T14:26:09;5.90;;;3.20;;
67191;SDS011;54120;53.504;49.426;2023-04-07T14:28:36;6.78;;;3.38;;
67191;SDS011;54120;53.504;49.426;2023-04-07T14:31:02;7.65;;;3.22;;
67191;SDS011;54120;53.504;49.426;2023-04-07T14:33:28;3.58;;;3.20;;
67191;SDS011;54120;53.504;49.426;2023-04-07T14:35:54;7.00;;;3.28;;
67191;SDS011;54120;53.504;49.426;2023-04-07T14:38:21;11.98;;;3.75;;
67191;SDS011;54120;53.504;49.426;2023-04-07T14:40:50;6.47;;;3.53;;
67191;SDS011;54120;53.504;49.426;2023-04-07T14:43:19;9.90;;;3.42;;
67191;SDS011;54120;53.504;49.426;2023-04-07T14:45:45;6.20;;;3.28;;
67191;SDS011;54120;53.504;49.426;2023-04-07T14:48:11;3.40;;;3.05;;
67191;SDS011;54120;53.504;49.426;2023-04-07T14:50:38;6.15;;;3.03;;
67191;SDS011;54120;53.504;49.426;2023-04-07T14:53:04;5.60;;;3.15;;
67191;SDS011;54120;53.504;49.426;2023-04-07T14:55:31;8.13;;;4.00;;
67191;SDS011;54120;53.504;49.426;2023-04-07T14:57:57;8.02;;;3.30;;
67191;SDS011;54120;53.504;49.426;2023-04-07T15:00:23;4.90;;;3.10;;
67191;SDS011;54120;53.504;49.426;2023-04-07T15:02:51;4.50;;;3.03;;
67191;SDS011;54120;53.504;49.426;2023-04-07T15:05:20;7.13;;;3.08;;
67191;SDS011;54120;53.504;49.426;2023-04-07T15:07:47;4.97;;;3.20;;